createdAt,value
2022-11-14T00:01:26.471Z,7.30
2022-11-14T00:03:51.335Z,7.20
2022-11-14T00:06:14.078Z,7.10
2022-11-14T00:08:37.645Z,7.10
2022-11-14T00:11:00.035Z,7.20
2022-11-14T00:13:24.022Z,7.10
2022-11-14T00:15:50.358Z,7.00
2022-11-14T00:18:13.353Z,7.00
2022-11-14T00:20:36.024Z,6.80
2022-11-14T00:22:58.781Z,6.50
2022-11-14T00:25:21.622Z,6.40
2022-11-14T00:27:44.573Z,6.30
2022-11-14T00:30:10.109Z,6.30
2022-11-14T00:32:33.052Z,6.20
2022-11-14T00:34:55.530Z,6.20
2022-11-14T00:37:18.063Z,6.00
2022-11-14T00:39:40.913Z,6.00
2022-11-14T00:42:03.360Z,6.00
2022-11-14T00:44:26.387Z,6.00
2022-11-14T00:46:50.300Z,5.90
2022-11-14T00:49:12.765Z,5.90
2022-11-14T00:51:35.412Z,5.90
2022-11-14T00:53:58.134Z,5.90
2022-11-14T00:56:21.177Z,5.90
2022-11-14T00:58:43.617Z,5.80
2022-11-14T01:01:06.524Z,5.70
2022-11-14T01:03:30.812Z,5.60
2022-11-14T01:05:53.866Z,5.60
2022-11-14T01:08:17.973Z,5.60
2022-11-14T01:10:42.049Z,5.60
2022-11-14T01:13:04.596Z,5.50
2022-11-14T01:15:27.577Z,5.50
2022-11-14T01:17:50.663Z,5.40
2022-11-14T01:20:14.856Z,5.40
2022-11-14T01:22:37.506Z,5.20
2022-11-14T01:25:00.414Z,5.20
2022-11-14T01:27:23.226Z,5.20
2022-11-14T01:29:46.254Z,5.10
2022-11-14T01:32:11.837Z,5.10
2022-11-14T01:34:34.828Z,5.10
2022-11-14T01:36:59.044Z,5.10
2022-11-14T01:39:22.403Z,5.10
2022-11-14T01:41:45.315Z,5.10
2022-11-14T01:44:14.356Z,5.00
2022-11-14T01:46:39.886Z,4.90
2022-11-14T01:49:06.409Z,4.90
2022-11-14T01:51:32.560Z,4.80
2022-11-14T01:53:57.902Z,4.80
2022-11-14T01:56:26.235Z,4.70
2022-11-14T01:58:54.761Z,4.70
2022-11-14T02:01:17.640Z,4.70
2022-11-14T02:03:42.881Z,4.60
2022-11-14T02:06:07.660Z,4.60
2022-11-14T02:08:31.588Z,4.60
2022-11-14T02:10:55.741Z,4.50
2022-11-14T02:13:18.653Z,4.50
2022-11-14T02:15:41.832Z,4.50
2022-11-14T02:18:04.484Z,4.50
2022-11-14T02:20:33.099Z,4.50
2022-11-14T02:22:56.118Z,4.50
2022-11-14T02:25:20.657Z,4.40
2022-11-14T02:27:43.615Z,4.40
2022-11-14T02:30:08.767Z,4.30
2022-11-14T02:32:45.027Z,4.30
2022-11-14T02:35:14.559Z,4.30
2022-11-14T02:37:38.581Z,4.20
2022-11-14T02:40:01.313Z,4.20
2022-11-14T02:42:23.931Z,4.20
2022-11-14T02:44:48.769Z,4.20
2022-11-14T02:47:11.765Z,4.10
2022-11-14T02:49:34.268Z,4.10
2022-11-14T02:51:56.827Z,4.20
2022-11-14T02:54:21.023Z,4.20
2022-11-14T02:56:43.838Z,4.30
2022-11-14T02:59:06.823Z,4.30
2022-11-14T03:01:29.498Z,4.30
2022-11-14T03:03:52.390Z,4.30
2022-11-14T03:06:15.559Z,4.20
2022-11-14T03:08:38.077Z,4.20
2022-11-14T03:11:07.517Z,4.20
2022-11-14T03:13:31.019Z,4.20
2022-11-14T03:15:53.466Z,4.20
2022-11-14T03:18:15.973Z,4.20
2022-11-14T03:20:38.588Z,4.20
2022-11-14T03:23:01.550Z,4.30
2022-11-14T03:25:24.466Z,4.30
2022-11-14T03:27:48.442Z,4.20
2022-11-14T03:30:12.509Z,4.20
2022-11-14T03:32:34.907Z,4.10
2022-11-14T03:34:57.602Z,4.00
2022-11-14T03:37:20.723Z,4.00
2022-11-14T03:39:43.735Z,4.10
2022-11-14T03:42:08.013Z,4.10
2022-11-14T03:44:31.877Z,4.10
2022-11-14T03:46:55.176Z,4.20
2022-11-14T03:49:17.744Z,4.20
2022-11-14T03:51:41.095Z,4.20
2022-11-14T03:54:03.579Z,4.30
2022-11-14T03:56:26.497Z,4.20
2022-11-14T03:58:49.172Z,4.20
2022-11-14T04:01:13.456Z,4.20
2022-11-14T04:03:36.509Z,4.30
2022-11-14T04:05:59.437Z,4.30
2022-11-14T04:08:22.671Z,4.40
2022-11-14T04:10:47.895Z,4.40
2022-11-14T04:13:11.002Z,4.40
2022-11-14T04:15:33.996Z,4.40
2022-11-14T04:17:58.092Z,4.50
2022-11-14T04:20:21.131Z,4.50
2022-11-14T04:22:43.801Z,4.50
2022-11-14T04:25:07.655Z,4.50
2022-11-14T04:27:30.424Z,4.60
2022-11-14T04:29:52.871Z,4.60
2022-11-14T04:32:15.728Z,4.60
2022-11-14T04:34:40.199Z,4.70
2022-11-14T04:37:02.722Z,4.70
2022-11-14T04:39:25.258Z,4.80
2022-11-14T04:41:48.285Z,4.80
2022-11-14T04:44:11.469Z,4.80
2022-11-14T04:46:33.988Z,4.80
2022-11-14T04:48:56.565Z,4.80
2022-11-14T04:51:20.998Z,4.90
2022-11-14T04:53:43.677Z,4.90
2022-11-14T04:56:07.155Z,5.00
2022-11-14T04:58:30.172Z,5.00
2022-11-14T05:00:52.873Z,5.10
2022-11-14T05:03:15.676Z,5.20
2022-11-14T05:05:41.915Z,5.20
2022-11-14T05:08:06.744Z,5.20
2022-11-14T05:10:29.837Z,5.20
2022-11-14T05:12:55.255Z,5.30
2022-11-14T05:15:18.867Z,5.30
2022-11-14T05:17:41.456Z,5.30
2022-11-14T05:20:04.894Z,5.40
2022-11-14T05:22:27.939Z,5.30
2022-11-14T05:24:51.954Z,5.30
2022-11-14T05:27:14.605Z,5.30
2022-11-14T05:29:37.593Z,5.30
2022-11-14T05:32:00.873Z,5.30
2022-11-14T05:34:23.779Z,5.40
2022-11-14T05:36:46.273Z,5.50
2022-11-14T05:39:08.913Z,5.50
2022-11-14T05:41:33.057Z,5.50
2022-11-14T05:43:55.900Z,5.60
2022-11-14T05:46:18.690Z,5.60
2022-11-14T05:48:42.465Z,5.60
2022-11-14T05:51:06.973Z,5.70
2022-11-14T05:53:31.483Z,5.70
2022-11-14T05:55:55.414Z,5.80
2022-11-14T05:58:19.685Z,5.80
2022-11-14T06:00:49.813Z,5.90
2022-11-14T06:03:16.694Z,6.00
2022-11-14T06:05:39.283Z,6.10
2022-11-14T06:08:02.194Z,6.10
2022-11-14T06:10:24.556Z,6.20
2022-11-14T06:12:47.259Z,6.20
2022-11-14T06:15:11.998Z,6.20
2022-11-14T06:17:34.845Z,6.20
2022-11-14T06:19:57.353Z,6.30
2022-11-14T06:22:20.179Z,6.30
2022-11-14T06:24:43.189Z,6.40
2022-11-14T06:27:06.908Z,6.40
2022-11-14T06:29:35.222Z,6.40
2022-11-14T06:31:59.592Z,6.40
2022-11-14T06:34:22.541Z,6.40
2022-11-14T06:36:45.552Z,6.50
2022-11-14T06:39:08.560Z,6.50
2022-11-14T06:41:31.593Z,6.50
2022-11-14T06:43:54.909Z,6.60
2022-11-14T06:46:19.613Z,6.70
2022-11-14T06:48:44.354Z,6.60
2022-11-14T06:51:07.980Z,6.60
2022-11-14T06:53:33.276Z,6.60
2022-11-14T06:55:57.624Z,6.60
2022-11-14T06:58:20.199Z,6.60
2022-11-14T07:00:42.898Z,6.60
2022-11-14T07:03:05.786Z,6.70
2022-11-14T07:05:29.910Z,6.70
2022-11-14T07:07:52.468Z,6.80
2022-11-14T07:10:15.037Z,6.90
2022-11-14T07:12:37.793Z,7.00
2022-11-14T07:15:01.062Z,7.10
2022-11-14T07:17:27.209Z,7.10
2022-11-14T07:19:53.499Z,7.20
2022-11-14T07:22:17.748Z,7.30
2022-11-14T07:24:40.303Z,7.30
2022-11-14T07:27:02.999Z,7.40
2022-11-14T07:29:25.483Z,7.40
2022-11-14T07:31:48.540Z,7.50
2022-11-14T07:34:12.203Z,7.50
2022-11-14T07:36:34.864Z,7.60
2022-11-14T07:39:00.094Z,7.70
2022-11-14T07:41:22.682Z,7.70
2022-11-14T07:43:46.270Z,7.70
2022-11-14T07:46:11.683Z,7.80
2022-11-14T07:48:35.083Z,7.90
2022-11-14T07:51:00.633Z,8.00
2022-11-14T07:53:24.389Z,8.10
2022-11-14T07:55:48.258Z,8.20
2022-11-14T07:58:11.237Z,8.30
2022-11-14T08:00:33.515Z,8.40
2022-11-14T08:02:56.181Z,8.30
2022-11-14T08:05:19.614Z,8.40
2022-11-14T08:07:42.698Z,8.40
2022-11-14T08:10:05.906Z,8.40
2022-11-14T08:12:30.255Z,8.40
2022-11-14T08:14:52.926Z,8.30
2022-11-14T08:17:15.964Z,8.40
2022-11-14T08:19:38.601Z,8.40
2022-11-14T08:22:01.540Z,8.50
2022-11-14T08:24:24.084Z,8.60
2022-11-14T08:26:46.837Z,8.60
2022-11-14T08:29:10.704Z,8.60
2022-11-14T08:31:33.399Z,8.70
2022-11-14T08:33:55.985Z,8.60
2022-11-14T08:36:18.888Z,8.60
2022-11-14T08:38:41.764Z,8.70
2022-11-14T08:41:05.129Z,8.70
2022-11-14T08:43:28.636Z,8.70
2022-11-14T08:45:52.748Z,8.90
2022-11-14T08:48:23.019Z,8.90
2022-11-14T08:51:17.739Z,9.00
2022-11-14T08:53:40.507Z,9.10
2022-11-14T08:56:03.263Z,9.10
2022-11-14T08:58:28.659Z,9.10
2022-11-14T09:00:53.009Z,9.20
2022-11-14T09:03:16.254Z,9.40
2022-11-14T09:05:39.179Z,9.40
2022-11-14T09:08:01.968Z,9.40
2022-11-14T09:10:24.466Z,9.30
2022-11-14T09:12:47.046Z,9.20
2022-11-14T09:15:10.754Z,9.10
2022-11-14T09:17:35.449Z,9.10
2022-11-14T09:19:58.202Z,9.10
2022-11-14T09:22:20.868Z,9.20
2022-11-14T09:24:43.662Z,9.30
2022-11-14T09:27:06.474Z,9.40
2022-11-14T09:29:29.000Z,9.50
2022-11-14T09:31:55.187Z,9.50
2022-11-14T09:34:19.891Z,9.40
2022-11-14T09:36:43.023Z,9.40
2022-11-14T09:39:05.929Z,9.40
2022-11-14T09:41:39.519Z,9.30
2022-11-14T09:44:27.409Z,9.20
2022-11-14T09:46:58.015Z,9.20
2022-11-14T09:49:30.869Z,9.20
2022-11-14T09:51:59.702Z,9.30
2022-11-14T09:54:25.505Z,9.40
2022-11-14T09:56:48.518Z,9.40
2022-11-14T09:59:12.510Z,9.50
2022-11-14T10:01:45.677Z,9.50
2022-11-14T10:04:19.052Z,9.50
2022-11-14T10:06:50.617Z,9.50
2022-11-14T10:09:45.752Z,9.50
2022-11-14T10:12:16.444Z,9.50
2022-11-14T10:15:10.722Z,9.50
2022-11-14T10:17:45.997Z,9.50
2022-11-14T10:20:21.434Z,9.60
2022-11-14T10:23:16.179Z,9.60
2022-11-14T10:25:53.405Z,9.50
2022-11-14T10:28:40.729Z,9.60
2022-11-14T10:31:10.214Z,9.60
2022-11-14T10:33:45.083Z,9.60
2022-11-14T10:36:14.949Z,9.70
2022-11-14T10:38:42.727Z,9.70
2022-11-14T10:41:07.878Z,9.80
2022-11-14T10:43:36.373Z,9.90
2022-11-14T10:46:03.282Z,10.00
2022-11-14T10:48:32.592Z,9.90
2022-11-14T10:50:59.370Z,9.90
2022-11-14T10:53:29.894Z,9.90
2022-11-14T10:56:04.043Z,10.00
2022-11-14T10:58:28.113Z,10.00
2022-11-14T11:00:51.356Z,9.90
2022-11-14T11:03:14.234Z,9.90
2022-11-14T11:05:48.446Z,9.90
2022-11-14T11:08:51.521Z,9.80
2022-11-14T11:11:31.114Z,9.70
2022-11-14T11:13:56.307Z,9.80
2022-11-14T11:16:23.238Z,9.80
2022-11-14T11:18:50.567Z,9.60
2022-11-14T11:21:15.295Z,9.70
2022-11-14T11:23:48.812Z,9.80
2022-11-14T11:26:20.938Z,9.80
2022-11-14T11:28:43.720Z,10.00
2022-11-14T11:31:08.468Z,10.00
2022-11-14T11:33:32.725Z,10.00
2022-11-14T11:35:58.135Z,10.00
2022-11-14T11:38:21.233Z,10.00
2022-11-14T11:40:45.483Z,10.00
2022-11-14T11:43:37.878Z,10.00
2022-11-14T11:46:04.410Z,10.00
2022-11-14T11:48:35.382Z,10.00
2022-11-14T11:50:58.886Z,9.90
2022-11-14T11:53:26.043Z,9.90
2022-11-14T11:55:52.428Z,9.90
2022-11-14T11:58:22.314Z,10.00
2022-11-14T12:00:45.161Z,10.00
2022-11-14T12:03:20.224Z,10.10
2022-11-14T12:05:50.146Z,10.20
2022-11-14T12:08:22.843Z,10.00
2022-11-14T12:10:46.038Z,9.90
2022-11-14T12:13:52.849Z,9.90
2022-11-14T12:16:56.724Z,9.90
2022-11-14T12:19:47.847Z,9.80
2022-11-14T12:22:28.830Z,9.80
2022-11-14T12:25:22.876Z,9.70
2022-11-14T12:28:06.362Z,9.70
2022-11-14T12:30:31.642Z,9.80
2022-11-14T12:32:59.934Z,9.80
2022-11-14T12:35:26.153Z,9.80
2022-11-14T12:37:55.399Z,9.90
2022-11-14T12:40:28.965Z,9.90
2022-11-14T12:42:51.783Z,9.80
2022-11-14T12:45:47.481Z,9.80
2022-11-14T12:48:23.912Z,9.90
2022-11-14T12:50:46.929Z,9.90
2022-11-14T12:53:42.250Z,9.90
2022-11-14T12:56:22.432Z,9.90
2022-11-14T12:58:51.735Z,9.90
2022-11-14T13:01:39.405Z,9.90
2022-11-14T13:04:19.233Z,9.90
2022-11-14T13:06:52.642Z,9.90
2022-11-14T13:09:36.689Z,9.90
2022-11-14T13:12:21.965Z,10.00
2022-11-14T13:15:09.487Z,10.00
2022-11-14T13:17:49.777Z,10.00
2022-11-14T13:20:47.545Z,10.00
2022-11-14T13:23:43.568Z,9.90
2022-11-14T13:26:45.670Z,10.00
2022-11-14T13:29:08.223Z,9.90
2022-11-14T13:31:46.073Z,10.00
2022-11-14T13:34:41.486Z,10.10
2022-11-14T13:37:23.189Z,9.90
2022-11-14T13:39:52.946Z,10.00
2022-11-14T13:42:41.758Z,10.00
2022-11-14T13:45:40.249Z,10.00
2022-11-14T13:48:24.579Z,10.00
2022-11-14T13:50:50.993Z,10.10
2022-11-14T13:53:19.344Z,10.20
2022-11-14T13:55:57.727Z,10.20
2022-11-14T13:58:33.249Z,10.20
2022-11-14T14:01:15.163Z,10.20
2022-11-14T14:03:59.866Z,10.20
2022-11-14T14:06:34.425Z,10.10
2022-11-14T14:09:12.456Z,10.10
2022-11-14T14:11:52.718Z,10.10
2022-11-14T14:14:24.050Z,10.10
2022-11-14T14:16:55.122Z,10.10
2022-11-14T14:19:26.129Z,10.10
2022-11-14T14:21:58.416Z,10.10
2022-11-14T14:24:38.810Z,10.10
2022-11-14T14:27:13.866Z,10.00
2022-11-14T14:29:45.083Z,10.00
2022-11-14T14:32:12.612Z,10.00
2022-11-14T14:34:35.565Z,10.00
2022-11-14T14:36:59.424Z,9.90
2022-11-14T14:39:25.333Z,9.90
2022-11-14T14:41:50.972Z,10.00
2022-11-14T14:44:23.118Z,10.00
2022-11-14T14:46:49.373Z,10.00
2022-11-14T14:49:12.510Z,9.80
2022-11-14T14:51:38.299Z,9.80
2022-11-14T14:54:01.900Z,9.70
2022-11-14T14:56:26.115Z,9.70
2022-11-14T14:58:50.119Z,9.60
2022-11-14T15:01:15.749Z,9.50
2022-11-14T15:03:41.082Z,9.60
2022-11-14T15:06:05.585Z,9.60
2022-11-14T15:08:30.302Z,9.50
2022-11-14T15:10:57.061Z,9.40
2022-11-14T15:13:20.221Z,9.30
2022-11-14T15:15:44.948Z,9.30
2022-11-14T15:18:09.883Z,9.30
2022-11-14T15:20:32.933Z,9.40
2022-11-14T15:23:19.000Z,9.40
2022-11-14T15:25:43.018Z,9.30
2022-11-14T15:28:15.027Z,9.30
2022-11-14T15:30:39.229Z,9.20
2022-11-14T15:33:05.324Z,9.20
2022-11-14T15:35:33.648Z,9.20
2022-11-14T15:41:20.014Z,9.20
2022-11-14T15:43:50.822Z,9.20
2022-11-14T15:46:28.400Z,9.20
2022-11-14T15:48:52.765Z,9.10
2022-11-14T15:51:15.464Z,9.10
2022-11-14T15:53:39.372Z,9.10
2022-11-14T15:56:01.739Z,8.90
2022-11-14T15:58:29.068Z,9.00
2022-11-14T16:00:54.816Z,8.90
2022-11-14T16:03:20.544Z,9.00
2022-11-14T16:05:46.220Z,9.00
2022-11-14T16:08:16.593Z,9.00
2022-11-14T16:10:58.000Z,9.00
2022-11-14T16:13:32.410Z,9.00
2022-11-14T16:16:22.277Z,9.10
2022-11-14T16:18:48.909Z,9.10
2022-11-14T16:21:17.594Z,9.00
2022-11-14T16:23:40.366Z,9.00
2022-11-14T16:26:03.128Z,9.00
2022-11-14T16:28:26.321Z,8.90
2022-11-14T16:30:48.968Z,9.00
2022-11-14T16:33:11.858Z,8.90
2022-11-14T16:35:34.945Z,9.00
2022-11-14T16:38:01.448Z,8.90
2022-11-14T16:40:27.615Z,8.90
2022-11-14T16:42:53.457Z,8.90
2022-11-14T16:45:17.391Z,8.90
2022-11-14T16:47:40.660Z,8.80
2022-11-14T16:50:07.126Z,8.90
2022-11-14T16:52:29.667Z,8.80
2022-11-14T16:54:53.592Z,8.90
2022-11-14T16:57:17.137Z,8.90
2022-11-14T16:59:40.224Z,8.90
2022-11-14T17:02:03.065Z,8.90
2022-11-14T17:04:25.539Z,8.90
2022-11-14T17:06:48.217Z,8.90
2022-11-14T17:09:15.037Z,8.90
2022-11-14T17:11:39.201Z,8.90
2022-11-14T17:14:01.923Z,8.90
2022-11-14T17:16:27.629Z,8.80
2022-11-14T17:18:54.629Z,8.90
2022-11-14T17:21:18.009Z,8.90
2022-11-14T17:23:40.962Z,8.90
2022-11-14T17:26:04.062Z,8.90
2022-11-14T17:28:28.812Z,8.90
2022-11-14T17:30:52.699Z,9.00
2022-11-14T17:33:15.932Z,9.00
2022-11-14T17:35:39.403Z,9.00
2022-11-14T17:38:02.393Z,9.00
2022-11-14T17:40:26.462Z,8.90
2022-11-14T17:42:48.971Z,8.90
2022-11-14T17:45:13.235Z,8.90
2022-11-14T17:47:35.872Z,8.90
2022-11-14T17:49:58.330Z,8.90
2022-11-14T17:52:21.128Z,8.90
2022-11-14T17:54:43.888Z,8.90
2022-11-14T17:57:07.740Z,9.00
2022-11-14T17:59:30.297Z,8.90
2022-11-14T18:01:57.647Z,8.90
2022-11-14T18:04:20.360Z,8.90
2022-11-14T18:06:43.171Z,8.90
2022-11-14T18:09:08.156Z,9.00
2022-11-14T18:11:33.016Z,9.00
2022-11-14T18:13:56.845Z,9.00
2022-11-14T18:16:20.820Z,9.00
2022-11-14T18:18:45.431Z,9.00
2022-11-14T18:21:09.640Z,9.20
2022-11-14T18:23:32.546Z,9.20
2022-11-14T18:25:55.401Z,9.10
2022-11-14T18:28:18.637Z,9.00
2022-11-14T18:30:42.517Z,8.90
2022-11-14T18:33:05.644Z,9.00
2022-11-14T18:35:30.179Z,9.00
2022-11-14T18:37:52.809Z,9.00
2022-11-14T18:40:16.820Z,9.00
2022-11-14T18:42:40.255Z,9.00
2022-11-14T18:45:03.121Z,9.00
2022-11-14T18:47:26.564Z,9.00
2022-11-14T18:49:49.570Z,9.00
2022-11-14T18:52:17.384Z,9.00
2022-11-14T18:54:41.161Z,9.00
2022-11-14T18:57:04.429Z,9.00
2022-11-14T18:59:28.337Z,9.00
2022-11-14T19:01:51.104Z,9.00
2022-11-14T19:04:17.263Z,9.00
2022-11-14T19:06:41.194Z,9.00
2022-11-14T19:09:11.120Z,9.00
2022-11-14T19:11:51.654Z,9.00
2022-11-14T19:14:14.537Z,9.00
2022-11-14T19:16:38.661Z,9.00
2022-11-14T19:19:01.622Z,9.10
2022-11-14T19:21:24.795Z,9.10
2022-11-14T19:23:47.799Z,9.10
2022-11-14T19:26:12.237Z,9.10
2022-11-14T19:28:35.138Z,9.20
2022-11-14T19:31:03.155Z,9.30
2022-11-14T19:33:25.992Z,9.30
2022-11-14T19:35:48.646Z,9.30
2022-11-14T19:38:11.284Z,9.30
2022-11-14T19:40:33.690Z,9.30
2022-11-14T19:43:01.987Z,9.30
2022-11-14T19:45:24.440Z,9.30
2022-11-14T19:47:47.878Z,9.30
2022-11-14T19:50:11.269Z,9.40
2022-11-14T19:52:37.777Z,9.40
2022-11-14T19:55:00.513Z,9.40
2022-11-14T19:57:23.244Z,9.40
2022-11-14T19:59:47.101Z,9.40
2022-11-14T20:02:12.857Z,9.40
2022-11-14T20:04:37.993Z,9.40
2022-11-14T20:07:01.489Z,9.30
2022-11-14T20:09:24.274Z,9.20
2022-11-14T20:11:46.913Z,9.20
2022-11-14T20:14:11.377Z,9.20
2022-11-14T20:16:37.597Z,9.20
2022-11-14T20:19:01.767Z,9.20
2022-11-14T20:21:26.064Z,9.20
2022-11-14T20:23:49.096Z,9.20
2022-11-14T20:26:13.416Z,9.20
2022-11-14T20:28:36.492Z,9.20
2022-11-14T20:31:02.544Z,9.20
2022-11-14T20:33:26.398Z,9.20
2022-11-14T20:35:49.794Z,9.20
2022-11-14T20:38:12.512Z,9.20
2022-11-14T20:40:35.734Z,9.10
2022-11-14T20:42:58.805Z,9.10
2022-11-14T20:45:21.358Z,9.10
2022-11-14T20:47:44.016Z,9.10
2022-11-14T20:50:08.681Z,9.00
2022-11-14T20:52:31.802Z,9.10
2022-11-14T20:54:54.730Z,9.10
2022-11-14T20:57:17.674Z,9.20
2022-11-14T20:59:40.507Z,9.10
2022-11-14T21:02:03.845Z,9.10
2022-11-14T21:04:26.502Z,9.10
2022-11-14T21:06:50.493Z,9.10
2022-11-14T21:09:13.715Z,9.10
2022-11-14T21:11:36.426Z,9.00
2022-11-14T21:13:59.846Z,9.10
2022-11-14T21:16:23.037Z,9.00
2022-11-14T21:18:48.184Z,9.10
2022-11-14T21:21:15.929Z,9.10
2022-11-14T21:23:40.333Z,9.10
2022-11-14T21:26:05.687Z,9.10
2022-11-14T21:28:30.312Z,9.10
2022-11-14T21:30:52.952Z,9.10
2022-11-14T21:33:15.479Z,9.10
2022-11-14T21:35:37.847Z,9.10
2022-11-14T21:38:00.553Z,9.10
2022-11-14T21:40:24.787Z,9.10
2022-11-14T21:42:47.383Z,9.10
2022-11-14T21:45:11.981Z,9.10
2022-11-14T21:47:34.957Z,9.20
2022-11-14T21:50:01.062Z,9.10
2022-11-14T21:52:24.288Z,9.00
2022-11-14T21:54:46.831Z,8.90
2022-11-14T21:57:11.118Z,8.90
2022-11-14T21:59:33.841Z,8.90
2022-11-14T22:02:13.883Z,9.00
2022-11-14T22:04:37.619Z,9.00
2022-11-14T22:07:01.207Z,9.00
2022-11-14T22:09:24.144Z,9.00
2022-11-14T22:11:46.481Z,9.10
2022-11-14T22:14:10.607Z,9.10
2022-11-14T22:16:35.308Z,9.10
2022-11-14T22:19:04.719Z,9.10
2022-11-14T22:21:28.354Z,9.10
2022-11-14T22:23:53.387Z,9.10
2022-11-14T22:26:16.492Z,9.10
2022-11-14T22:28:39.546Z,9.10
2022-11-14T22:31:05.640Z,9.10
2022-11-14T22:33:32.183Z,9.10
2022-11-14T22:35:55.178Z,9.10
2022-11-14T22:38:17.873Z,9.10
2022-11-14T22:40:40.960Z,9.20
2022-11-14T22:43:03.792Z,9.20
2022-11-14T22:45:26.720Z,9.20
2022-11-14T22:47:50.662Z,9.20
2022-11-14T22:50:13.407Z,9.20
2022-11-14T22:52:36.223Z,9.20
2022-11-14T22:54:59.008Z,9.10
2022-11-14T22:57:22.397Z,9.10
2022-11-14T22:59:44.775Z,9.10
2022-11-14T23:02:10.265Z,9.10
2022-11-14T23:04:34.532Z,9.20
2022-11-14T23:06:57.484Z,9.10
2022-11-14T23:09:19.883Z,9.10
2022-11-14T23:11:42.737Z,9.20
2022-11-14T23:14:05.451Z,9.20
2022-11-14T23:16:30.170Z,9.20
2022-11-14T23:18:58.068Z,9.20
2022-11-14T23:21:24.060Z,9.30
2022-11-14T23:23:46.830Z,9.30
2022-11-14T23:26:12.060Z,9.30
2022-11-14T23:28:34.917Z,9.30
2022-11-14T23:30:58.301Z,9.40
2022-11-14T23:33:20.787Z,9.40
2022-11-14T23:35:44.092Z,9.30
2022-11-14T23:38:08.042Z,9.30
2022-11-14T23:40:30.887Z,9.30
2022-11-14T23:42:53.669Z,9.30
2022-11-14T23:45:16.594Z,9.30
2022-11-14T23:47:39.230Z,9.30
2022-11-14T23:50:02.092Z,9.30
2022-11-14T23:52:24.561Z,9.30
2022-11-14T23:54:48.807Z,9.20
2022-11-14T23:57:11.466Z,9.20
2022-11-14T23:59:33.945Z,9.20
